• Join FlightAware (Why Join?)
  • Login
  • US Flag 
10:01AM EDT


 

Airport Tracker/Info


-or-


 

Live Flight TrackerFlight Track Log ✈ AAL1326 ✈ 29-Apr-2013 ✈ KMCI - KORD

Flight Track Log - Related Links

Times and Time Zones

All times are in EDT time to prevent confusion due to time zone crossing. See the AAL1326 flight status page for this flight to view local times or setup timezone preferences in your user account.

Time Position Orientation Groundspeed Altitude Reporting Facility
EDT Latitude Longitude Course Direction KTS MPH feet Rate Location/Type
04:53PM 39.4068 -94.5631 46° Northeast  Level FlightAware Approximate
04:53PM 39.1560 -94.7140 41° Northeast 272 313 6,700  Level FlightAware
04:53PM 39.1510 -94.6960 110° East 300 345 6,900 1,500 Climbing FlightAware
04:54PM 39.4843 -94.4740 41° Northeast  Level FlightAware Approximate
04:54PM 39.1500 -94.6820 95° East 309 356 7,200  Level FlightAware
04:54PM 39.1680 -94.6360 63° Northeast 317 365 8,600 3,240 Climbing FlightAware
04:54PM 39.1800 -94.6250 35° Northeast 318 366 9,100 2,460 Climbing FlightAware
04:55PM 39.2370 -94.5790 32° Northeast 348 400 10,900 2,460 Climbing FlightAware
04:56PM 39.2960 -94.5310 32° Northeast 376 433 12,600 3,120 Climbing FlightAware
04:56PM 39.3630 -94.4770 32° Northeast 378 435 15,400 3,360 Climbing FlightAware
04:57PM 39.4230 -94.4270 33° Northeast 390 449 17,400 2,940 Climbing FlightAware
04:58PM 39.4900 -94.3700 33° Northeast 400 460 19,600 2,640 Climbing FlightAware
04:58PM 39.5540 -94.3170 33° Northeast 415 478 21,200 2,460 Climbing FlightAware
04:59PM 39.6200 -94.2620 33° Northeast 426 490 22,900 2,400 Climbing FlightAware
05:00PM 39.6800 -94.1730 49° Northeast 442 509 24,600 2,220 Climbing FlightAware
05:00PM 39.7140 -94.0750 66° East 451 519 26,100 2,040 Climbing FlightAware
05:01PM 39.7510 -93.9640 67° East 461 531 27,500 1,740 Climbing FlightAware
05:02PM 39.7850 -93.8610 67° East 472 543 28,600 1,800 Climbing FlightAware
05:03PM 39.8190 -93.7560 67° East 476 548 29,900 2,040 Climbing FlightAware
05:03PM 39.8570 -93.6360 68° East 473 544 31,500 2,100 Climbing FlightAware
05:04PM 39.8920 -93.5290 67° East 469 540 32,900 1,020 Climbing FlightAware
05:05PM 39.9280 -93.4150 68° East 469 540 33,000 60 Climbing FlightAware
05:05PM 39.9610 -93.3130 67° East 468 539 33,000  Level FlightAware
05:06PM 39.9990 -93.1930 68° East 468 539 33,000  Level FlightAware
05:07PM 40.0320 -93.0910 67° East 468 539 33,000  Level FlightAware
05:07PM 40.0660 -92.9840 67° East 468 539 33,000  Level FlightAware
05:08PM 40.1020 -92.8690 68° East 467 537 33,000  Level FlightAware
05:09PM 40.1360 -92.7630 67° East 468 539 33,000  Level FlightAware
05:10PM 40.1720 -92.6460 68° East 467 537 33,000  Level FlightAware
05:10PM 40.2030 -92.5460 68° East 467 537 33,000  Level FlightAware
05:11PM 40.2390 -92.4300 68° East 466 536 33,000  Level FlightAware
05:12PM 40.2730 -92.3190 68° East 466 536 33,000  Level FlightAware
05:12PM 40.3040 -92.2220 67° East 465 535 33,000  Level FlightAware
05:13PM 40.3380 -92.1110 68° East 465 535 33,000  Level FlightAware
05:14PM 40.3780 -91.9830 68° East 465 535 33,000  Level FlightAware
05:15PM 40.4170 -91.8550 68° East 465 535 33,000  Level FlightAware
05:15PM 40.4550 -91.7300 68° East 464 534 33,000  Level FlightAware
05:16PM 40.4860 -91.6290 68° East 463 533 33,000  Level FlightAware
05:17PM 40.5160 -91.5270 69° East 464 534 33,000  Level FlightAware
05:18PM 40.5530 -91.4050 68° East 467 537 33,000  Level FlightAware
05:18PM 40.6030 -91.2610 65° Northeast 464 534 33,000  Level FlightAware
05:19PM 40.6370 -91.1610 66° East 463 533 33,000  Level FlightAware
05:20PM 40.6850 -91.0190 66° East 462 532 33,000 -420 Level FlightAware
05:21PM 40.7250 -90.9020 66° East 459 528 32,300 -1,020 Descending FlightAware
05:22PM 40.7750 -90.7540 66° East 459 528 31,300 -960 Descending FlightAware
05:22PM 40.8100 -90.6480 66° East 463 533 30,700 -1,020 Descending FlightAware
05:23PM 40.8430 -90.5500 66° East 464 534 30,000 -1,020 Descending FlightAware
05:24PM 40.8830 -90.4320 66° East 461 531 29,300 -960 Descending FlightAware
05:25PM 40.9180 -90.3260 66° East 462 532 28,700 -1,020 Descending FlightAware
05:25PM 40.9520 -90.2220 67° East 461 531 28,000 -1,020 Descending FlightAware
05:26PM 40.9910 -90.1040 66° East 469 540 27,300 -1,020 Descending FlightAware
05:27PM 41.0250 -90.0020 66° East 463 533 26,600 -1,020 Descending FlightAware
05:27PM 41.0630 -89.8860 66° East 459 528 25,900 -1,020 Descending FlightAware
05:28PM 41.0970 -89.7810 67° East 458 527 25,200 -1,020 Descending FlightAware
05:29PM 41.1330 -89.6690 67° East 453 521 24,500 -1,080 Descending FlightAware
05:29PM 41.1660 -89.5720 66° East 448 516 23,700 -1,680 Descending FlightAware
05:30PM 41.2080 -89.4680 62° Northeast 437 503 22,300 -2,100 Descending FlightAware
05:31PM 41.2500 -89.3640 62° Northeast 429 494 20,800 -2,100 Descending FlightAware
05:32PM 41.2870 -89.2730 62° Northeast 422 486 19,400 -2,040 Descending FlightAware
05:32PM 41.3230 -89.1820 62° Northeast 413 475 18,100 -1,980 Descending FlightAware
05:33PM 41.3630 -89.0830 62° Northeast 406 467 16,600 -1,980 Descending FlightAware
05:34PM 41.3980 -88.9960 62° Northeast 403 464 15,300 -1,920 Descending FlightAware
05:34PM 41.4380 -88.8970 62° Northeast 394 453 13,900 -1,920 Descending FlightAware
05:35PM 41.4710 -88.8130 62° Northeast 386 444 12,600 -1,920 Descending FlightAware
05:36PM 41.5090 -88.7170 62° Northeast 380 437 11,200 -1,080 Descending FlightAware
05:36PM 41.5410 -88.6360 62° Northeast 375 432 11,100 -120 Descending FlightAware
05:37PM 41.5810 -88.5670 52° Northeast 359 413 11,100 -480 Level FlightAware
05:38PM 41.6290 -88.4890 51° Northeast 336 387 10,500 -720 Descending FlightAware
05:39PM 41.6660 -88.4290 50° Northeast 309 356 10,100 -540 Descending FlightAware
05:39PM 41.6930 -88.3850 51° Northeast 288 331 9,900 -480 Descending FlightAware
05:39PM 41.7120 -88.3530 51° Northeast 276 318 9,700 -1,140 Descending FlightAware
05:40PM 41.7360 -88.3140 50° Northeast 274 315 8,900 -1,560 Descending FlightAware
05:40PM 41.7570 -88.2800 50° Northeast 270 311 8,300 -1,320 Descending FlightAware
05:41PM 41.7790 -88.2430 51° Northeast 264 304 7,700 -1,200 Descending FlightAware
05:41PM 41.8020 -88.2040 52° Northeast 257 296 7,100 -660 Descending FlightAware
05:42PM 41.8200 -88.1750 50° Northeast 236 272 7,100  Level FlightAware
05:42PM 41.8410 -88.1400 51° Northeast 229 264 7,100  Level FlightAware
05:43PM 41.8570 -88.1140 50° Northeast 229 264 7,100  Level FlightAware
05:43PM 41.8830 -88.0930 31° Northeast 216 249 7,100  Level FlightAware
05:44PM 41.9120 -88.0970 354° North 215 247 7,100  Level FlightAware
05:44PM 41.9210 -88.0980 355° North 215 247 7,100  Level FlightAware
05:44PM 41.9500 -88.1030 353° North 215 247 7,100  Level FlightAware
05:45PM 41.9790 -88.1070 354° North 211 243 7,100  Level FlightAware
05:45PM 42.0040 -88.1150 347° North 199 229 7,100  Level FlightAware
05:46PM 42.0260 -88.1360 325° Northwest 197 227 7,100 -600 Level FlightAware
05:46PM 42.0440 -88.1530 325° Northwest 200 230 6,600 -1,200 Descending FlightAware
05:47PM 42.0670 -88.1750 325° Northwest 201 231 6,000 -960 Descending FlightAware
05:47PM 42.0770 -88.1850 323° Northwest 202 232 5,800 -1,020 Descending FlightAware
05:48PM 42.1090 -88.2170 323° Northwest 202 232 5,100 -1,020 Descending FlightAware
05:48PM 42.1310 -88.2300 336° Northwest 209 241 4,800 -960 Descending FlightAware
05:48PM 42.1480 -88.2200 24° Northeast 208 239 4,400 -960 Descending FlightAware
05:49PM 42.1660 -88.1970 43° Northeast 206 237 4,100 -360 Descending FlightAware
05:49PM 42.1780 -88.1710 58° Northeast 186 214 4,100  Level FlightAware
05:50PM 42.1730 -88.1480 106° East 177 204 4,100  Level FlightAware
05:50PM 42.1630 -88.1310 128° Southeast 168 193 4,100  Level FlightAware
05:50PM 42.1470 -88.1090 134° Southeast 168 193 4,100  Level FlightAware
05:51PM 42.1290 -88.0890 141° Southeast 167 192 4,100 -360 Level FlightAware
05:51PM 42.1130 -88.0710 140° Southeast 172 198 3,800 -780 Descending FlightAware
05:52PM 42.0960 -88.0520 140° Southeast 163 188 3,400 -780 Descending FlightAware
05:52PM 42.0820 -88.0360 140° Southeast 170 196 3,100 -900 Descending FlightAware
05:53PM 42.0630 -88.0140 139° Southeast 164 189 2,600 -1,020 Descending FlightAware
05:53PM 42.0490 -87.9990 141° Southeast 153 176 2,200 -780 Descending FlightAware
05:54PM 42.0340 -87.9820 140° Southeast 134 154 1,900 -720 Descending FlightAware
05:54PM 42.0200 -87.9670 141° Southeast 130 150 1,500 -720 Descending FlightAware
05:55PM 42.0110 -87.9560 138° Southeast 130 150 1,300 -660 Descending FlightAware
05:55PM 41.9940 -87.9370 140° Southeast 139 160 900 -720 Descending FlightAware